Time;durP1;ratioP1;P1;durP2;ratioP2;P2;SDS_P1;SDS_P2;PMS_P1;PMS_P2;Temp;Humidity;BMP_temperature;BMP_pressure;BME280_temperature;BME280_humidity;BME280_pressure;Samples;Min_cycle;Max_cycle;Signal;HPM_P1;HPM_P2
2022/03/22 00:00:17;;;;;;;24.88;16.25;;;13.50;57.50;;;;;;5025516;28;20491;-69
2022/03/22 00:02:43;;;;;;;23.27;16.30;;;13.40;57.50;;;;;;5030715;28;20018;-70
2022/03/22 00:05:08;;;;;;;22.35;16.35;;;13.40;57.40;;;;;;5029889;28;20041;-70
2022/03/22 00:07:34;;;;;;;22.30;15.88;;;13.40;57.30;;;;;;5042079;28;20059;-69
2022/03/22 00:09:59;;;;;;;23.23;15.48;;;13.40;57.40;;;;;;5034973;28;20032;-69
2022/03/22 00:12:26;;;;;;;21.70;15.20;;;13.40;57.30;;;;;;5035447;28;20404;-69
2022/03/22 00:14:51;;;;;;;17.45;13.23;;;13.40;57.20;;;;;;5036185;28;20075;-69
2022/03/22 00:17:17;;;;;;;20.75;14.68;;;13.40;57.10;;;;;;5031992;28;20029;-69
2022/03/22 00:19:42;;;;;;;22.50;14.80;;;13.40;57.10;;;;;;5033208;28;20584;-69
2022/03/22 00:22:11;;;;;;;22.58;14.52;;;13.40;57.10;;;;;;5030103;28;20040;-69
2022/03/22 00:24:37;;;;;;;20.85;14.50;;;13.30;57.10;;;;;;5034954;28;20030;-69
2022/03/22 00:27:02;;;;;;;21.67;15.20;;;13.30;57.20;;;;;;5037231;28;20029;-69
2022/03/22 00:29:28;;;;;;;22.65;14.57;;;13.30;57.20;;;;;;5032096;28;20026;-70
2022/03/22 00:31:56;;;;;;;20.92;14.63;;;13.30;57.20;;;;;;5028247;28;20408;-69
2022/03/22 00:34:23;;;;;;;19.80;13.25;;;13.30;57.30;;;;;;5026466;28;20031;-69
2022/03/22 00:36:50;;;;;;;21.23;14.10;;;13.20;57.20;;;;;;5027020;28;20479;-69
2022/03/22 00:39:16;;;;;;;15.35;11.23;;;13.20;57.20;;;;;;5019523;28;20057;-69
2022/03/22 00:41:42;;;;;;;20.73;12.60;;;13.30;57.20;;;;;;5012210;28;20033;-69
2022/03/22 00:44:08;;;;;;;18.40;12.95;;;13.20;57.10;;;;;;5026163;28;20653;-69
2022/03/22 00:46:34;;;;;;;17.70;11.90;;;13.20;57.10;;;;;;5027838;28;20121;-68
2022/03/22 00:49:02;;;;;;;16.90;11.93;;;13.20;57.10;;;;;;5020545;28;20026;-68
2022/03/22 00:51:28;;;;;;;25.00;17.50;;;13.20;57.10;;;;;;5023269;28;20700;-68
2022/03/22 00:53:54;;;;;;;19.30;13.95;;;13.10;57.10;;;;;;5024624;28;20025;-69
2022/03/22 00:56:19;;;;;;;19.38;13.15;;;13.10;57.10;;;;;;5026456;28;20116;-68
2022/03/22 00:58:45;;;;;;;18.42;12.55;;;13.10;57.10;;;;;;5021114;28;20188;-68
2022/03/22 01:01:10;;;;;;;18.40;13.82;;;13.10;57.10;;;;;;5025669;28;20026;-69
2022/03/22 01:03:36;;;;;;;17.30;11.70;;;13.10;57.20;;;;;;5026487;28;20083;-69
2022/03/22 01:06:02;;;;;;;15.70;11.70;;;13.10;57.30;;;;;;5024767;28;20080;-69
2022/03/22 01:08:31;;;;;;;21.65;13.55;;;13.00;57.30;;;;;;5027809;28;20033;-69
2022/03/22 01:10:56;;;;;;;16.83;12.63;;;13.00;57.30;;;;;;5025649;28;20050;-69
2022/03/22 01:13:24;;;;;;;18.83;14.10;;;13.00;57.30;;;;;;5025356;28;20076;-69
2022/03/22 01:15:50;;;;;;;17.50;10.88;;;12.90;57.30;;;;;;5025900;28;20026;-69
2022/03/22 01:18:16;;;;;;;16.40;11.57;;;13.00;57.30;;;;;;5029056;28;20131;-69
2022/03/22 01:20:47;;;;;;;18.85;14.27;;;13.00;57.30;;;;;;5026853;28;20494;-69
2022/03/22 01:23:15;;;;;;;17.25;12.60;;;12.90;57.30;;;;;;5019674;28;20029;-69
2022/03/22 01:25:43;;;;;;;14.57;9.98;;;12.90;57.40;;;;;;5021711;28;20024;-69
2022/03/22 01:28:11;;;;;;;18.00;12.90;;;12.90;57.40;;;;;;5026150;28;20108;-69
2022/03/22 01:30:38;;;;;;;14.20;10.48;;;12.90;57.50;;;;;;5027674;28;20013;-69
2022/03/22 01:33:04;;;;;;;18.95;13.80;;;12.90;57.50;;;;;;5028473;28;20033;-69
2022/03/22 01:35:31;;;;;;;15.70;11.18;;;12.80;57.60;;;;;;5026378;28;20032;-69
2022/03/22 01:37:57;;;;;;;14.00;9.95;;;12.80;57.60;;;;;;5026744;28;20087;-69
2022/03/22 01:40:25;;;;;;;15.27;10.75;;;12.80;57.60;;;;;;5033108;28;20034;-69
2022/03/22 01:42:51;;;;;;;14.93;11.00;;;12.80;57.70;;;;;;5025874;28;20080;-69
2022/03/22 01:45:17;;;;;;;15.18;10.50;;;12.80;57.70;;;;;;5026048;28;20021;-70
2022/03/22 01:47:44;;;;;;;16.73;11.90;;;12.70;57.70;;;;;;5030157;28;20030;-69
2022/03/22 01:50:12;;;;;;;17.40;12.00;;;12.70;57.70;;;;;;5026851;28;20067;-69
2022/03/22 01:52:41;;;;;;;18.17;11.48;;;12.70;57.80;;;;;;5027405;28;20531;-69
2022/03/22 01:55:08;;;;;;;16.05;11.00;;;12.70;57.80;;;;;;5027443;28;20017;-69
2022/03/22 01:57:34;;;;;;;14.52;10.73;;;12.60;57.90;;;;;;5030971;28;20030;-69
2022/03/22 02:00:05;;;;;;;14.23;10.60;;;12.60;57.90;;;;;;5029372;28;20033;-69
2022/03/22 02:08:01;;;;;;;16.00;11.20;;;12.50;58.10;;;;;;5027194;28;20060;-69
2022/03/22 02:10:27;;;;;;;15.02;10.07;;;12.50;58.10;;;;;;5027286;28;20028;-69
2022/03/22 02:12:53;;;;;;;13.98;10.70;;;12.50;58.10;;;;;;5021585;28;20123;-69
2022/03/22 02:15:19;;;;;;;14.07;10.45;;;12.40;58.10;;;;;;5025867;28;20067;-69
2022/03/22 02:17:46;;;;;;;13.63;10.48;;;12.50;58.20;;;;;;5029727;28;20022;-69
2022/03/22 02:20:12;;;;;;;14.43;10.63;;;12.40;58.30;;;;;;5022321;28;20034;-69
2022/03/22 02:22:50;;;;;;;14.63;10.77;;;12.40;58.30;;;;;;5030709;28;20056;-69
2022/03/22 02:25:15;;;;;;;12.88;9.25;;;12.40;58.30;;;;;;5026298;28;20053;-69
2022/03/22 02:27:44;;;;;;;13.43;9.90;;;12.40;58.20;;;;;;5031724;28;20037;-69
2022/03/22 02:30:13;;;;;;;14.10;10.30;;;12.40;58.20;;;;;;5027245;28;20040;-69
2022/03/22 02:32:40;;;;;;;13.30;9.75;;;12.40;58.30;;;;;;5029922;28;20045;-69
2022/03/22 02:35:06;;;;;;;13.52;10.25;;;12.40;58.30;;;;;;5026297;28;20088;-69
2022/03/22 02:37:32;;;;;;;14.30;10.32;;;12.30;58.40;;;;;;5029230;28;20083;-70
2022/03/22 02:39:58;;;;;;;15.85;11.05;;;12.20;58.50;;;;;;5026778;28;20444;-70
2022/03/22 02:42:23;;;;;;;15.48;11.38;;;12.20;58.60;;;;;;5028993;28;20033;-70
2022/03/22 02:44:49;;;;;;;16.95;11.65;;;12.20;58.70;;;;;;5026246;28;20507;-69
2022/03/22 02:47:14;;;;;;;14.88;11.40;;;12.10;58.70;;;;;;5024749;28;20060;-70
2022/03/22 02:49:40;;;;;;;16.60;10.95;;;12.10;58.80;;;;;;5028719;28;20022;-69
2022/03/22 02:52:06;;;;;;;16.60;11.73;;;12.10;58.80;;;;;;5028238;28;20611;-69
2022/03/22 02:54:31;;;;;;;18.30;10.95;;;12.10;58.90;;;;;;5026367;28;20033;-69
2022/03/22 02:56:57;;;;;;;14.65;10.80;;;12.00;58.90;;;;;;5022861;28;20026;-70
2022/03/22 02:59:23;;;;;;;15.55;12.10;;;12.00;59.00;;;;;;5026748;28;20026;-70
2022/03/22 03:01:48;;;;;;;14.13;10.80;;;11.90;59.10;;;;;;5023568;28;20403;-69
2022/03/22 03:04:14;;;;;;;14.90;10.73;;;11.90;59.20;;;;;;5024216;28;20072;-69
2022/03/22 03:06:39;;;;;;;14.40;10.65;;;11.90;59.20;;;;;;5026560;28;20407;-69
2022/03/22 03:09:05;;;;;;;16.00;12.75;;;11.90;59.10;;;;;;5028932;28;20037;-69
2022/03/22 03:11:31;;;;;;;16.08;12.23;;;11.90;59.20;;;;;;5026033;28;20022;-69
2022/03/22 03:16:40;;;;;;;14.63;10.77;;;11.90;59.10;;;;;;5027261;28;20049;-69
2022/03/22 03:19:06;;;;;;;15.50;10.10;;;11.90;59.10;;;;;;5030942;28;20025;-69
2022/03/22 03:21:33;;;;;;;12.82;9.45;;;11.90;59.00;;;;;;5027011;28;20026;-69
2022/03/22 03:23:58;;;;;;;12.82;9.52;;;11.90;59.00;;;;;;5038297;28;20022;-69
2022/03/22 03:26:24;;;;;;;13.35;9.80;;;11.90;58.90;;;;;;5027090;28;20029;-69
2022/03/22 03:28:49;;;;;;;13.73;10.02;;;11.90;58.90;;;;;;5026431;28;20520;-69
2022/03/22 03:31:15;;;;;;;14.60;10.30;;;11.90;58.90;;;;;;5029452;28;20038;-69
2022/03/22 03:33:40;;;;;;;12.50;9.75;;;11.90;58.80;;;;;;5027711;28;20018;-69
2022/03/22 03:36:06;;;;;;;15.75;11.50;;;11.90;58.80;;;;;;5026550;28;20035;-69
2022/03/22 03:38:31;;;;;;;14.27;9.15;;;11.80;58.90;;;;;;5027808;28;20018;-69
2022/03/22 03:43:41;;;;;;;14.35;9.93;;;11.80;58.90;;;;;;5025952;28;20044;-69
2022/03/22 03:48:50;;;;;;;13.90;9.50;;;11.70;59.00;;;;;;5023153;28;20047;-71
2022/03/22 03:51:16;;;;;;;12.20;9.18;;;11.70;59.10;;;;;;5022787;28;20025;-69
2022/03/22 03:53:41;;;;;;;13.70;10.32;;;11.70;58.90;;;;;;5021867;28;20087;-69
2022/03/22 03:56:07;;;;;;;16.42;10.52;;;11.70;59.00;;;;;;5029907;28;20036;-69
2022/03/22 03:58:32;;;;;;;14.68;9.98;;;11.70;59.10;;;;;;5019234;28;20387;-69
2022/03/22 04:00:58;;;;;;;13.65;10.50;;;11.70;59.00;;;;;;5024764;28;20539;-69
2022/03/22 04:03:23;;;;;;;12.73;9.02;;;11.60;59.00;;;;;;5028014;28;20031;-69
2022/03/22 04:05:49;;;;;;;13.73;9.75;;;11.60;59.00;;;;;;5025970;28;20017;-70
2022/03/22 04:08:14;;;;;;;13.85;9.27;;;11.60;59.00;;;;;;5028119;28;20731;-69
2022/03/22 04:10:40;;;;;;;14.02;10.27;;;11.60;59.00;;;;;;5027370;28;20064;-69
2022/03/22 04:13:06;;;;;;;14.15;10.23;;;11.50;59.00;;;;;;5025552;28;20395;-69
2022/03/22 04:15:31;;;;;;;16.75;11.55;;;11.50;59.00;;;;;;5020389;28;20025;-69
2022/03/22 04:17:59;;;;;;;16.92;10.82;;;11.50;59.10;;;;;;5028559;28;20032;-69
2022/03/22 04:20:25;;;;;;;12.50;9.30;;;11.50;59.20;;;;;;5021736;28;20075;-70
2022/03/22 04:22:51;;;;;;;15.45;11.30;;;11.50;59.20;;;;;;5025673;28;20029;-70
2022/03/22 04:25:18;;;;;;;13.63;10.52;;;11.50;59.30;;;;;;5025619;28;20032;-69
2022/03/22 04:33:11;;;;;;;14.20;9.73;;;11.30;59.30;;;;;;5027165;28;20045;-70
2022/03/22 04:35:37;;;;;;;14.82;10.98;;;11.30;59.30;;;;;;5027448;28;20399;-69
2022/03/22 04:38:03;;;;;;;14.20;10.90;;;11.30;59.40;;;;;;5023936;28;20108;-69
2022/03/22 04:40:28;;;;;;;12.98;9.80;;;11.30;59.50;;;;;;5027188;28;20455;-69
2022/03/22 04:42:55;;;;;;;11.68;9.13;;;11.30;59.50;;;;;;5026046;28;20025;-69
2022/03/22 04:45:21;;;;;;;13.82;10.45;;;11.30;59.40;;;;;;5026022;28;20040;-69
2022/03/22 04:47:46;;;;;;;13.88;9.82;;;11.30;60.00;;;;;;5024248;28;20399;-69
2022/03/22 04:50:14;;;;;;;15.55;10.75;;;11.30;59.40;;;;;;5024016;28;20014;-70
2022/03/22 04:58:09;;;;;;;12.85;9.50;;;11.20;59.40;;;;;;5020737;28;20044;-69
2022/03/22 05:00:35;;;;;;;15.25;10.75;;;11.30;59.50;;;;;;5025888;28;20399;-69
2022/03/22 05:03:01;;;;;;;16.63;10.48;;;11.20;59.40;;;;;;5027646;28;20460;-69
2022/03/22 05:08:11;;;;;;;16.80;11.60;;;11.20;59.40;;;;;;5024847;28;20661;-69
2022/03/22 05:10:37;;;;;;;15.27;10.85;;;11.20;59.40;;;;;;5022610;28;20026;-69
2022/03/22 05:13:04;;;;;;;16.13;12.20;;;11.20;59.40;;;;;;5021372;28;20038;-70
2022/03/22 05:15:31;;;;;;;16.67;11.50;;;11.20;59.40;;;;;;5022215;28;20014;-70
2022/03/22 05:17:56;;;;;;;14.48;10.45;;;11.20;59.30;;;;;;5024599;28;20021;-69
2022/03/22 05:20:22;;;;;;;15.35;10.75;;;11.20;59.30;;;;;;5029547;28;20047;-69
2022/03/22 05:22:48;;;;;;;13.45;10.30;;;11.20;59.10;;;;;;5028840;28;21073;-70
2022/03/22 05:25:14;;;;;;;15.77;11.38;;;11.20;59.10;;;;;;5032304;28;20495;-69
2022/03/22 05:27:40;;;;;;;16.52;11.60;;;11.20;59.10;;;;;;5028829;28;20041;-70
2022/03/22 05:30:06;;;;;;;15.73;11.10;;;11.30;59.10;;;;;;5046067;28;20026;-69
2022/03/22 05:32:32;;;;;;;19.08;13.35;;;11.30;59.00;;;;;;5021466;28;20037;-70
2022/03/22 05:34:58;;;;;;;17.63;12.90;;;11.20;58.90;;;;;;5028147;28;20053;-70
2022/03/22 05:37:24;;;;;;;14.52;10.38;;;11.20;59.00;;;;;;5038604;28;20026;-69
2022/03/22 05:39:50;;;;;;;15.43;10.98;;;11.30;58.90;;;;;;5034395;28;20095;-69
2022/03/22 05:42:16;;;;;;;17.35;11.23;;;11.30;58.90;;;;;;5029282;28;20036;-69
2022/03/22 05:44:43;;;;;;;14.00;10.27;;;11.30;58.80;;;;;;5029759;28;20079;-69
2022/03/22 05:47:09;;;;;;;14.73;11.57;;;11.30;58.70;;;;;;5036411;28;20398;-69
2022/03/22 05:49:36;;;;;;;15.32;11.35;;;11.30;58.60;;;;;;5027708;28;20546;-69
2022/03/22 05:52:03;;;;;;;15.38;11.27;;;11.40;58.60;;;;;;5022712;28;20026;-69
2022/03/22 05:54:28;;;;;;;16.17;11.35;;;11.40;58.40;;;;;;5019870;28;20151;-69
2022/03/22 05:56:54;;;;;;;14.82;10.98;;;11.50;58.30;;;;;;5015925;28;20499;-69
2022/03/22 05:59:19;;;;;;;17.05;12.10;;;11.50;58.10;;;;;;5017880;28;20583;-69
2022/03/22 06:01:45;;;;;;;15.63;11.10;;;11.60;58.00;;;;;;5022216;28;20036;-69
2022/03/22 06:04:11;;;;;;;15.90;11.13;;;11.60;57.90;;;;;;5023627;28;20021;-69
2022/03/22 06:06:37;;;;;;;17.13;11.88;;;11.60;57.70;;;;;;5022723;28;20055;-69
2022/03/22 06:09:03;;;;;;;15.43;11.82;;;11.70;57.60;;;;;;5022028;28;20057;-69
2022/03/22 06:11:35;;;;;;;18.42;14.02;;;11.70;57.40;;;;;;5025429;28;20026;-69
2022/03/22 06:14:02;;;;;;;17.70;12.52;;;11.80;57.20;;;;;;5022927;28;20029;-69
2022/03/22 06:16:28;;;;;;;18.48;12.75;;;11.80;57.00;;;;;;5025171;28;20392;-69
2022/03/22 06:18:54;;;;;;;18.20;12.05;;;11.90;56.80;;;;;;5026269;28;20030;-70
2022/03/22 06:21:19;;;;;;;20.73;14.25;;;12.10;56.40;;;;;;5027801;28;20022;-70
2022/03/22 06:23:47;;;;;;;20.45;14.48;;;12.20;55.70;;;;;;5027023;28;20033;-70
2022/03/22 06:26:13;;;;;;;17.58;13.50;;;12.20;55.10;;;;;;5021541;28;20025;-70
2022/03/22 06:28:38;;;;;;;17.13;13.45;;;12.20;55.20;;;;;;5028816;28;20029;-71
2022/03/22 06:31:04;;;;;;;18.38;13.77;;;12.20;55.00;;;;;;5029373;28;20030;-70
2022/03/22 06:33:30;;;;;;;20.52;15.05;;;12.30;55.10;;;;;;5025640;28;20029;-69
2022/03/22 06:35:55;;;;;;;16.67;11.75;;;12.30;54.90;;;;;;5024769;28;20036;-70
2022/03/22 06:38:21;;;;;;;17.23;12.65;;;12.30;54.90;;;;;;5029967;28;20112;-69
2022/03/22 06:40:49;;;;;;;17.52;12.18;;;12.40;54.70;;;;;;5027260;28;20053;-69
2022/03/22 06:43:16;;;;;;;16.23;10.95;;;12.40;54.50;;;;;;5023532;28;20021;-70
2022/03/22 06:45:44;;;;;;;15.05;11.07;;;12.50;54.40;;;;;;5028973;28;20024;-70
2022/03/22 06:48:09;;;;;;;18.38;13.20;;;12.70;54.30;;;;;;5025282;28;20060;-69
2022/03/22 06:50:37;;;;;;;17.05;12.55;;;12.70;53.80;;;;;;5030669;28;20060;-69
2022/03/22 06:53:04;;;;;;;17.83;12.93;;;12.80;53.70;;;;;;5031483;28;20029;-69
2022/03/22 06:55:31;;;;;;;20.90;15.73;;;12.80;53.40;;;;;;5032887;28;20025;-70
2022/03/22 06:57:57;;;;;;;18.92;13.18;;;12.80;52.90;;;;;;5033682;28;20538;-69
2022/03/22 07:00:23;;;;;;;16.33;11.88;;;12.90;53.00;;;;;;5032438;28;20033;-70
2022/03/22 07:02:49;;;;;;;18.45;13.02;;;13.00;52.90;;;;;;5034584;28;20669;-70
2022/03/22 07:05:16;;;;;;;18.30;13.23;;;13.00;52.60;;;;;;5031418;28;20084;-70
2022/03/22 07:07:42;;;;;;;20.08;14.57;;;13.10;52.50;;;;;;5031903;28;20025;-69
2022/03/22 07:10:11;;;;;;;21.50;14.48;;;13.10;52.10;;;;;;5036536;28;20448;-69
2022/03/22 07:12:53;;;;;;;20.83;14.98;;;13.30;51.90;;;;;;5034657;28;20021;-69
2022/03/22 07:15:26;;;;;;;23.58;17.08;;;13.30;51.60;;;;;;5018110;28;20084;-70
2022/03/22 07:17:52;;;;;;;21.30;15.35;;;13.30;51.10;;;;;;5043087;28;20037;-70
2022/03/22 07:20:19;;;;;;;20.70;14.40;;;13.20;51.00;;;;;;5027309;28;20022;-70
2022/03/22 07:22:45;;;;;;;22.55;16.10;;;13.30;50.70;;;;;;5029550;28;20108;-70
2022/03/22 07:25:11;;;;;;;20.95;13.98;;;13.30;50.60;;;;;;5026592;28;20109;-69
2022/03/22 07:27:36;;;;;;;22.70;16.25;;;13.30;50.30;;;;;;5021337;28;20037;-70
2022/03/22 07:30:03;;;;;;;18.48;13.98;;;13.40;50.00;;;;;;5025081;28;20096;-70
2022/03/22 07:32:29;;;;;;;18.63;13.00;;;13.40;50.20;;;;;;5024571;28;20096;-69
2022/03/22 07:34:54;;;;;;;22.60;16.88;;;13.50;50.10;;;;;;5025573;28;20101;-70
2022/03/22 07:37:20;;;;;;;21.15;14.75;;;13.40;49.40;;;;;;5024978;28;20543;-69
2022/03/22 07:39:46;;;;;;;20.98;14.70;;;13.50;49.70;;;;;;5025072;28;20033;-70
2022/03/22 07:42:11;;;;;;;19.33;13.80;;;13.60;49.50;;;;;;5025798;28;20030;-70
2022/03/22 07:44:38;;;;;;;20.65;15.73;;;13.60;49.60;;;;;;5024059;28;20105;-70
2022/03/22 07:47:04;;;;;;;22.25;15.98;;;13.70;49.30;;;;;;5023638;28;20025;-70
2022/03/22 07:54:59;;;;;;;23.52;16.48;;;13.90;49.10;;;;;;5025677;28;20041;-70
2022/03/22 07:57:24;;;;;;;19.40;15.05;;;13.80;48.50;;;;;;5027640;28;20018;-70
2022/03/22 07:59:50;;;;;;;19.00;13.82;;;13.90;48.50;;;;;;5024933;28;20044;-70
2022/03/22 08:02:15;;;;;;;18.55;13.10;;;13.90;48.50;;;;;;5028230;28;20025;-72
2022/03/22 08:04:41;;;;;;;19.05;13.70;;;14.00;48.40;;;;;;5026907;28;20036;-69
2022/03/22 08:07:07;;;;;;;21.98;15.52;;;14.10;48.10;;;;;;5025808;28;20120;-69
2022/03/22 08:09:32;;;;;;;22.75;16.35;;;14.10;47.60;;;;;;5024668;28;20052;-70
2022/03/22 08:11:58;;;;;;;21.42;15.32;;;14.10;47.00;;;;;;5026233;28;20053;-71
2022/03/22 08:14:24;;;;;;;19.10;13.77;;;14.10;47.10;;;;;;5025277;28;20108;-70
2022/03/22 08:16:49;;;;;;;22.70;16.23;;;14.20;47.10;;;;;;5025603;28;20031;-70
2022/03/22 08:19:18;;;;;;;17.95;13.52;;;14.30;46.90;;;;;;5023536;28;20380;-69
2022/03/22 08:21:48;;;;;;;18.55;13.32;;;14.30;46.80;;;;;;5029001;28;20026;-69
2022/03/22 08:24:14;;;;;;;23.48;13.63;;;14.40;46.70;;;;;;5021189;28;20025;-70
2022/03/22 08:26:39;;;;;;;23.40;15.80;;;14.50;46.60;;;;;;5023177;28;20128;-69
2022/03/22 08:29:06;;;;;;;18.80;12.43;;;14.50;45.90;;;;;;5027830;28;20029;-69
2022/03/22 08:31:31;;;;;;;19.95;14.15;;;14.60;46.30;;;;;;5028395;28;20468;-69
2022/03/22 08:33:57;;;;;;;23.65;16.75;;;14.70;46.10;;;;;;5025685;28;20036;-71
2022/03/22 08:36:23;;;;;;;22.85;15.95;;;14.70;45.70;;;;;;5027190;28;20420;-69
2022/03/22 08:38:49;;;;;;;24.75;17.33;;;14.80;45.80;;;;;;5024232;28;20030;-70
2022/03/22 08:41:15;;;;;;;26.00;16.70;;;14.80;45.40;;;;;;5027866;28;20079;-69
2022/03/22 08:43:41;;;;;;;22.80;16.27;;;14.80;45.40;;;;;;5020795;28;20101;-70
2022/03/22 08:46:07;;;;;;;21.48;15.60;;;14.80;45.30;;;;;;5026048;28;20112;-69
2022/03/22 08:48:34;;;;;;;18.58;12.98;;;14.90;45.40;;;;;;5026104;28;20471;-69
2022/03/22 08:51:00;;;;;;;19.88;13.98;;;15.00;45.50;;;;;;5026952;28;20093;-70
2022/03/22 08:53:26;;;;;;;21.75;14.32;;;15.00;45.20;;;;;;5022683;28;20100;-70
2022/03/22 08:55:52;;;;;;;20.67;13.65;;;15.10;45.10;;;;;;5029194;28;20472;-69
2022/03/22 08:58:18;;;;;;;20.50;13.93;;;15.20;45.30;;;;;;5023610;28;20021;-70
2022/03/22 09:00:47;;;;;;;22.30;15.65;;;15.20;45.20;;;;;;5024210;28;20029;-72
2022/03/22 09:03:13;;;;;;;21.58;16.10;;;15.30;44.80;;;;;;5027901;28;20112;-69
2022/03/22 09:08:23;;;;;;;22.70;15.18;;;15.30;45.10;;;;;;5024812;28;20044;-69
2022/03/22 09:10:50;;;;;;;22.73;14.85;;;15.30;44.90;;;;;;5024845;28;20025;-70
2022/03/22 09:13:17;;;;;;;18.45;13.23;;;15.30;44.90;;;;;;5023724;28;20028;-69
2022/03/22 09:15:44;;;;;;;22.33;15.88;;;15.40;45.20;;;;;;5027258;28;20032;-69
2022/03/22 09:18:13;;;;;;;21.58;14.65;;;15.50;45.10;;;;;;5023013;28;20084;-69
2022/03/22 09:20:39;;;;;;;21.58;13.15;;;15.60;45.00;;;;;;5022782;28;20033;-70
2022/03/22 09:23:04;;;;;;;23.83;16.98;;;15.70;45.00;;;;;;5026551;28;20140;-69
2022/03/22 09:25:30;;;;;;;19.00;13.77;;;15.70;44.60;;;;;;5026345;28;20022;-69
2022/03/22 09:27:56;;;;;;;22.48;14.48;;;15.80;44.80;;;;;;5021318;28;20033;-69
2022/03/22 09:30:22;;;;;;;17.30;13.27;;;15.80;45.00;;;;;;5024568;28;20034;-69
2022/03/22 09:32:48;;;;;;;17.15;13.30;;;15.90;45.10;;;;;;5021311;28;20017;-69
2022/03/22 09:35:17;;;;;;;18.88;14.55;;;16.00;45.10;;;;;;5022378;28;20468;-69
2022/03/22 09:37:43;;;;;;;20.50;14.77;;;16.10;45.20;;;;;;5027407;28;20037;-69
2022/03/22 09:40:10;;;;;;;19.60;14.07;;;16.10;45.50;;;;;;5031207;28;20033;-69
2022/03/22 09:42:42;;;;;;;18.65;13.43;;;16.20;45.30;;;;;;5028446;28;20060;-69
2022/03/22 09:45:10;;;;;;;21.38;15.88;;;16.40;45.20;;;;;;5024796;28;20022;-69
2022/03/22 09:47:37;;;;;;;21.58;15.38;;;16.40;44.80;;;;;;5022518;28;20079;-69
2022/03/22 09:50:07;;;;;;;16.05;12.07;;;16.40;44.80;;;;;;5029494;28;20555;-69
2022/03/22 09:52:34;;;;;;;19.25;13.75;;;16.50;44.80;;;;;;5029159;28;20025;-70
2022/03/22 09:54:59;;;;;;;18.20;13.40;;;16.50;44.90;;;;;;5029729;28;20105;-69
2022/03/22 09:57:25;;;;;;;20.55;14.98;;;16.60;44.70;;;;;;5031955;28;20563;-69
2022/03/22 09:59:50;;;;;;;23.50;14.70;;;16.70;44.60;;;;;;5028956;28;20041;-70
2022/03/22 10:02:29;;;;;;;18.98;13.82;;;16.80;44.40;;;;;;5030339;28;20036;-69
2022/03/22 10:04:55;;;;;;;20.15;13.38;;;16.90;44.50;;;;;;5027017;28;20052;-69
2022/03/22 10:07:23;;;;;;;22.27;14.38;;;16.90;44.50;;;;;;5032009;28;20033;-69
2022/03/22 10:09:58;;;;;;;16.77;12.80;;;17.00;44.10;;;;;;5024156;28;20148;-69
2022/03/22 10:12:37;;;;;;;18.75;13.13;;;17.10;44.20;;;;;;5030904;28;20046;-70
2022/03/22 10:15:15;;;;;;;19.20;13.20;;;17.20;44.20;;;;;;5030480;28;20029;-69
2022/03/22 10:17:43;;;;;;;21.10;15.20;;;17.30;43.80;;;;;;5031411;28;20033;-69
2022/03/22 10:20:19;;;;;;;18.63;12.88;;;17.30;43.30;;;;;;5027427;28;20399;-69
2022/03/22 10:22:45;;;;;;;19.33;13.38;;;17.30;43.20;;;;;;5033753;28;20586;-69
2022/03/22 10:25:11;;;;;;;22.90;15.05;;;17.40;43.10;;;;;;5020971;28;20032;-69
2022/03/22 10:27:37;;;;;;;19.00;12.85;;;17.40;42.40;;;;;;5029376;28;20026;-69
2022/03/22 10:30:06;;;;;;;20.35;14.25;;;17.40;42.90;;;;;;5024993;28;20503;-69
2022/03/22 10:32:44;;;;;;;21.50;14.27;;;17.50;42.40;;;;;;5027389;28;20017;-69
2022/03/22 10:35:17;;;;;;;18.90;13.30;;;17.50;41.90;;;;;;5030428;28;20028;-70
2022/03/22 10:37:50;;;;;;;24.60;15.00;;;17.60;41.90;;;;;;5028622;28;20574;-68
2022/03/22 10:40:40;;;;;;;20.17;13.82;;;17.60;41.80;;;;;;5032432;28;20026;-70
2022/03/22 10:43:26;;;;;;;21.52;14.57;;;17.70;41.90;;;;;;5021045;28;20033;-70
2022/03/22 10:45:59;;;;;;;22.77;14.60;;;17.70;41.60;;;;;;5028230;28;20026;-69
2022/03/22 10:48:27;;;;;;;21.60;14.40;;;17.70;41.80;;;;;;5029744;28;20029;-70
2022/03/22 10:50:55;;;;;;;21.90;14.82;;;17.80;41.80;;;;;;5027137;28;20014;-71
2022/03/22 10:53:23;;;;;;;23.45;14.82;;;17.90;42.10;;;;;;5030448;28;20025;-70
2022/03/22 10:55:50;;;;;;;19.67;13.45;;;17.90;41.90;;;;;;5028210;28;20465;-71
2022/03/22 10:58:21;;;;;;;17.95;12.85;;;18.00;42.20;;;;;;5030301;28;20063;-68
2022/03/22 11:00:48;;;;;;;19.03;13.13;;;18.10;42.40;;;;;;5028879;28;20028;-68
2022/03/22 11:03:17;;;;;;;18.40;11.63;;;18.20;42.30;;;;;;5035719;28;20025;-68
2022/03/22 11:05:53;;;;;;;19.40;13.07;;;18.30;42.20;;;;;;5036130;28;20025;-68
2022/03/22 11:08:24;;;;;;;22.95;17.10;;;18.30;42.00;;;;;;5047809;28;20017;-69
2022/03/22 11:10:51;;;;;;;16.92;12.70;;;18.30;41.40;;;;;;5030913;28;20028;-70
2022/03/22 11:13:17;;;;;;;17.27;12.35;;;18.30;41.80;;;;;;5034731;28;20025;-69
2022/03/22 11:15:46;;;;;;;18.80;13.70;;;18.40;42.00;;;;;;5028185;28;21634;-68
2022/03/22 11:18:14;;;;;;;19.00;13.98;;;18.40;41.90;;;;;;5027381;28;20503;-69
2022/03/22 11:20:55;;;;;;;19.58;13.73;;;18.40;41.80;;;;;;5024715;28;20484;-69
2022/03/22 11:23:25;;;;;;;20.33;14.27;;;18.50;41.50;;;;;;5026376;28;20482;-67
2022/03/22 11:25:51;;;;;;;17.70;11.70;;;18.50;41.00;;;;;;5027104;28;20033;-67
2022/03/22 11:28:19;;;;;;;18.70;12.77;;;18.50;41.20;;;;;;5030078;28;20029;-67
2022/03/22 11:30:46;;;;;;;17.60;12.18;;;18.60;41.90;;;;;;5035253;28;20484;-67
2022/03/22 11:36:00;;;;;;;16.40;11.80;;;18.60;41.00;;;;;;5034249;28;20095;-67
2022/03/22 11:38:44;;;;;;;20.10;13.48;;;18.80;41.00;;;;;;5038591;28;20033;-67
2022/03/22 11:44:24;;;;;;;23.10;14.18;;;18.90;40.90;;;;;;5029136;28;20472;-66
2022/03/22 11:47:41;;;;;;;18.17;11.45;;;19.00;40.70;;;;;;5026906;28;20687;-67
2022/03/22 11:50:16;;;;;;;19.60;13.40;;;19.20;40.70;;;;;;4968896;28;20038;-67
2022/03/22 11:52:42;;;;;;;18.80;12.30;;;19.20;40.40;;;;;;4967332;28;20422;-67
2022/03/22 11:55:22;;;;;;;18.98;12.77;;;19.40;40.40;;;;;;5000158;28;20042;-67
2022/03/22 11:57:53;;;;;;;21.90;14.35;;;19.30;40.10;;;;;;5030409;28;20518;-67
2022/03/22 12:00:21;;;;;;;20.25;13.23;;;19.40;40.00;;;;;;5023254;28;20018;-67
2022/03/22 12:02:53;;;;;;;23.00;15.20;;;19.30;39.80;;;;;;5029709;28;20025;-67
2022/03/22 12:05:20;;;;;;;20.63;12.98;;;19.30;39.60;;;;;;5025740;28;20071;-66
2022/03/22 12:07:47;;;;;;;18.50;14.38;;;19.30;39.80;;;;;;5022643;28;20034;-67
2022/03/22 12:10:17;;;;;;;20.00;12.80;;;19.30;39.80;;;;;;5025731;28;20179;-67
2022/03/22 12:12:49;;;;;;;18.45;13.50;;;19.50;39.70;;;;;;5029281;28;20032;-67
2022/03/22 12:15:17;;;;;;;21.08;14.68;;;19.60;39.80;;;;;;5026076;28;20150;-67
2022/03/22 12:17:44;;;;;;;20.48;13.45;;;19.70;39.50;;;;;;5025195;28;20048;-68
2022/03/22 12:20:11;;;;;;;19.58;13.50;;;19.70;39.20;;;;;;5026504;28;20021;-67
2022/03/22 12:22:41;;;;;;;20.58;13.80;;;19.80;39.20;;;;;;5026094;28;20017;-67
2022/03/22 12:25:13;;;;;;;17.50;12.75;;;20.00;38.90;;;;;;5024621;28;20037;-67
2022/03/22 12:28:00;;;;;;;20.70;13.75;;;20.10;38.40;;;;;;5028456;28;20091;-67
2022/03/22 12:30:29;;;;;;;16.45;11.13;;;20.10;38.00;;;;;;5022028;28;20029;-68
2022/03/22 12:33:02;;;;;;;19.67;13.35;;;20.20;38.50;;;;;;5026788;28;20719;-67
2022/03/22 12:35:28;;;;;;;17.63;12.98;;;20.10;39.20;;;;;;5021694;28;20052;-67
2022/03/22 12:37:55;;;;;;;20.38;13.40;;;20.20;38.50;;;;;;5027014;28;20045;-67
2022/03/22 12:40:22;;;;;;;16.27;11.05;;;20.20;38.10;;;;;;5021206;28;20044;-67
2022/03/22 12:42:52;;;;;;;18.90;12.50;;;20.20;39.10;;;;;;5022404;28;20029;-67
2022/03/22 12:45:19;;;;;;;21.58;13.70;;;20.30;38.20;;;;;;5028625;28;20031;-67
2022/03/22 12:47:45;;;;;;;19.63;12.73;;;20.30;37.80;;;;;;5026671;28;20507;-67
2022/03/22 12:50:13;;;;;;;16.15;12.27;;;20.30;38.20;;;;;;5018851;28;20393;-66
2022/03/22 12:52:40;;;;;;;20.95;14.15;;;20.40;38.10;;;;;;5025292;28;20108;-67
2022/03/22 12:55:08;;;;;;;21.35;13.60;;;20.50;37.90;;;;;;5024834;28;20458;-68
2022/03/22 12:57:34;;;;;;;18.38;13.63;;;20.40;37.30;;;;;;5025263;28;20046;-67
2022/03/22 13:00:00;;;;;;;20.45;14.35;;;20.40;37.80;;;;;;5027485;28;20024;-67
2022/03/22 13:02:27;;;;;;;21.38;15.20;;;20.40;37.70;;;;;;5025392;28;20056;-67
2022/03/22 13:04:53;;;;;;;23.80;15.38;;;20.40;36.80;;;;;;5021829;28;20656;-66
2022/03/22 13:07:22;;;;;;;18.83;12.73;;;20.30;37.00;;;;;;5023911;28;20109;-67
2022/03/22 13:12:34;;;;;;;17.23;12.57;;;20.70;37.40;;;;;;5027979;28;20126;-67